sensor_id;sensor_type;location;lat;lon;timestamp;P1;durP1;ratioP1;P2;durP2;ratioP2
43807;SDS011;29438;50.664;10.098;2023-05-10T00:01:07;5.70;;;3.13;;
43807;SDS011;29438;50.664;10.098;2023-05-10T00:03:32;5.63;;;3.05;;
43807;SDS011;29438;50.664;10.098;2023-05-10T00:05:58;5.15;;;3.05;;
43807;SDS011;29438;50.664;10.098;2023-05-10T00:08:23;5.05;;;2.92;;
43807;SDS011;29438;50.664;10.098;2023-05-10T00:10:49;4.85;;;2.90;;
43807;SDS011;29438;50.664;10.098;2023-05-10T00:13:14;5.07;;;2.92;;
43807;SDS011;29438;50.664;10.098;2023-05-10T00:15:40;6.50;;;3.47;;
43807;SDS011;29438;50.664;10.098;2023-05-10T00:18:05;5.85;;;3.40;;
43807;SDS011;29438;50.664;10.098;2023-05-10T00:20:31;5.32;;;3.10;;
43807;SDS011;29438;50.664;10.098;2023-05-10T00:22:57;6.22;;;3.35;;
43807;SDS011;29438;50.664;10.098;2023-05-10T00:25:22;6.13;;;3.50;;
43807;SDS011;29438;50.664;10.098;2023-05-10T00:27:48;7.78;;;3.45;;
43807;SDS011;29438;50.664;10.098;2023-05-10T00:30:14;5.82;;;3.70;;
43807;SDS011;29438;50.664;10.098;2023-05-10T00:32:40;5.63;;;3.65;;
43807;SDS011;29438;50.664;10.098;2023-05-10T00:35:05;8.85;;;4.40;;
43807;SDS011;29438;50.664;10.098;2023-05-10T00:37:31;6.57;;;3.95;;
43807;SDS011;29438;50.664;10.098;2023-05-10T00:39:57;6.25;;;3.80;;
43807;SDS011;29438;50.664;10.098;2023-05-10T00:42:22;6.80;;;4.18;;
43807;SDS011;29438;50.664;10.098;2023-05-10T00:44:48;7.95;;;4.65;;
43807;SDS011;29438;50.664;10.098;2023-05-10T00:47:13;8.10;;;4.80;;
43807;SDS011;29438;50.664;10.098;2023-05-10T00:49:40;7.80;;;4.97;;
43807;SDS011;29438;50.664;10.098;2023-05-10T00:52:06;9.55;;;5.10;;
43807;SDS011;29438;50.664;10.098;2023-05-10T00:54:32;7.88;;;4.40;;
43807;SDS011;29438;50.664;10.098;2023-05-10T00:56:57;8.93;;;5.22;;
43807;SDS011;29438;50.664;10.098;2023-05-10T00:59:23;9.50;;;5.50;;
43807;SDS011;29438;50.664;10.098;2023-05-10T01:01:50;9.60;;;5.10;;
43807;SDS011;29438;50.664;10.098;2023-05-10T01:04:16;9.95;;;5.38;;
43807;SDS011;29438;50.664;10.098;2023-05-10T01:06:42;9.50;;;5.50;;
43807;SDS011;29438;50.664;10.098;2023-05-10T01:09:08;9.57;;;5.53;;
43807;SDS011;29438;50.664;10.098;2023-05-10T01:11:34;9.07;;;5.13;;
43807;SDS011;29438;50.664;10.098;2023-05-10T01:14:01;11.05;;;6.05;;
43807;SDS011;29438;50.664;10.098;2023-05-10T01:16:27;10.20;;;5.38;;
43807;SDS011;29438;50.664;10.098;2023-05-10T01:18:57;9.82;;;5.65;;
43807;SDS011;29438;50.664;10.098;2023-05-10T01:29:28;10.13;;;5.85;;
43807;SDS011;29438;50.664;10.098;2023-05-10T01:32:16;10.90;;;6.00;;
43807;SDS011;29438;50.664;10.098;2023-05-10T01:37:50;10.20;;;5.68;;
43807;SDS011;29438;50.664;10.098;2023-05-10T01:40:32;10.27;;;6.32;;
43807;SDS011;29438;50.664;10.098;2023-05-10T01:43:14;10.38;;;5.95;;
43807;SDS011;29438;50.664;10.098;2023-05-10T01:48:44;12.45;;;6.35;;
43807;SDS011;29438;50.664;10.098;2023-05-10T01:51:17;11.63;;;5.75;;
43807;SDS011;29438;50.664;10.098;2023-05-10T01:53:54;11.18;;;6.22;;
43807;SDS011;29438;50.664;10.098;2023-05-10T01:56:27;11.07;;;5.78;;
43807;SDS011;29438;50.664;10.098;2023-05-10T01:58:55;12.35;;;6.53;;
43807;SDS011;29438;50.664;10.098;2023-05-10T02:01:23;11.25;;;6.13;;
43807;SDS011;29438;50.664;10.098;2023-05-10T02:03:51;12.05;;;6.60;;
43807;SDS011;29438;50.664;10.098;2023-05-10T02:06:18;13.30;;;6.75;;
43807;SDS011;29438;50.664;10.098;2023-05-10T02:08:45;11.32;;;6.30;;
43807;SDS011;29438;50.664;10.098;2023-05-10T02:11:13;10.25;;;6.32;;
43807;SDS011;29438;50.664;10.098;2023-05-10T02:13:39;12.40;;;6.57;;
43807;SDS011;29438;50.664;10.098;2023-05-10T02:16:05;11.18;;;6.53;;
43807;SDS011;29438;50.664;10.098;2023-05-10T02:18:32;9.75;;;5.63;;
43807;SDS011;29438;50.664;10.098;2023-05-10T02:20:59;9.90;;;5.03;;
43807;SDS011;29438;50.664;10.098;2023-05-10T02:23:26;9.70;;;5.20;;
43807;SDS011;29438;50.664;10.098;2023-05-10T02:25:53;10.00;;;4.97;;
43807;SDS011;29438;50.664;10.098;2023-05-10T02:28:19;8.63;;;5.10;;
43807;SDS011;29438;50.664;10.098;2023-05-10T02:30:47;9.60;;;4.93;;
43807;SDS011;29438;50.664;10.098;2023-05-10T02:33:13;8.10;;;4.60;;
43807;SDS011;29438;50.664;10.098;2023-05-10T02:35:39;8.80;;;4.75;;
43807;SDS011;29438;50.664;10.098;2023-05-10T02:38:05;8.98;;;4.47;;
43807;SDS011;29438;50.664;10.098;2023-05-10T02:40:32;7.28;;;4.72;;
43807;SDS011;29438;50.664;10.098;2023-05-10T02:42:59;8.98;;;4.68;;
43807;SDS011;29438;50.664;10.098;2023-05-10T02:45:29;9.13;;;5.10;;
43807;SDS011;29438;50.664;10.098;2023-05-10T02:47:56;9.95;;;5.65;;
43807;SDS011;29438;50.664;10.098;2023-05-10T02:50:23;11.25;;;5.53;;
43807;SDS011;29438;50.664;10.098;2023-05-10T02:52:53;10.43;;;5.78;;
43807;SDS011;29438;50.664;10.098;2023-05-10T02:55:25;9.50;;;5.28;;
43807;SDS011;29438;50.664;10.098;2023-05-10T02:57:56;8.93;;;5.03;;
43807;SDS011;29438;50.664;10.098;2023-05-10T03:00:24;8.82;;;4.80;;
43807;SDS011;29438;50.664;10.098;2023-05-10T03:02:50;7.43;;;4.03;;
43807;SDS011;29438;50.664;10.098;2023-05-10T03:05:15;8.18;;;4.07;;
43807;SDS011;29438;50.664;10.098;2023-05-10T03:07:41;6.95;;;3.72;;
43807;SDS011;29438;50.664;10.098;2023-05-10T03:10:07;7.25;;;3.75;;
43807;SDS011;29438;50.664;10.098;2023-05-10T03:15:26;6.22;;;3.45;;
43807;SDS011;29438;50.664;10.098;2023-05-10T03:18:12;6.38;;;3.63;;
43807;SDS011;29438;50.664;10.098;2023-05-10T03:20:43;9.45;;;4.63;;
43807;SDS011;29438;50.664;10.098;2023-05-10T03:23:27;10.25;;;6.18;;
43807;SDS011;29438;50.664;10.098;2023-05-10T03:25:58;6.38;;;3.58;;
43807;SDS011;29438;50.664;10.098;2023-05-10T03:28:25;0.95;;;0.30;;
43807;SDS011;29438;50.664;10.098;2023-05-10T03:30:52;0.77;;;0.10;;
43807;SDS011;29438;50.664;10.098;2023-05-10T03:33:19;0.30;;;0.10;;
43807;SDS011;29438;50.664;10.098;2023-05-10T03:35:45;0.38;;;0.10;;
43807;SDS011;29438;50.664;10.098;2023-05-10T03:38:11;0.50;;;0.10;;
43807;SDS011;29438;50.664;10.098;2023-05-10T03:40:39;0.20;;;0.00;;
43807;SDS011;29438;50.664;10.098;2023-05-10T03:43:04;0.75;;;0.00;;
43807;SDS011;29438;50.664;10.098;2023-05-10T03:45:30;0.13;;;0.00;;
43807;SDS011;29438;50.664;10.098;2023-05-10T03:47:56;0.40;;;0.00;;
43807;SDS011;29438;50.664;10.098;2023-05-10T03:50:22;0.10;;;0.00;;
43807;SDS011;29438;50.664;10.098;2023-05-10T03:52:48;0.30;;;0.00;;
43807;SDS011;29438;50.664;10.098;2023-05-10T03:55:13;0.20;;;0.00;;
43807;SDS011;29438;50.664;10.098;2023-05-10T03:57:39;0.10;;;0.00;;
43807;SDS011;29438;50.664;10.098;2023-05-10T04:00:05;0.17;;;0.00;;
43807;SDS011;29438;50.664;10.098;2023-05-10T04:02:30;0.40;;;0.00;;
43807;SDS011;29438;50.664;10.098;2023-05-10T04:04:56;2.60;;;0.00;;
43807;SDS011;29438;50.664;10.098;2023-05-10T04:07:22;0.40;;;0.10;;
43807;SDS011;29438;50.664;10.098;2023-05-10T04:09:47;0.15;;;0.00;;
43807;SDS011;29438;50.664;10.098;2023-05-10T04:12:13;0.50;;;0.10;;
43807;SDS011;29438;50.664;10.098;2023-05-10T04:14:38;0.68;;;0.20;;
43807;SDS011;29438;50.664;10.098;2023-05-10T04:17:04;0.30;;;0.10;;
43807;SDS011;29438;50.664;10.098;2023-05-10T04:19:30;0.50;;;0.13;;
43807;SDS011;29438;50.664;10.098;2023-05-10T04:21:56;0.40;;;0.20;;
43807;SDS011;29438;50.664;10.098;2023-05-10T04:24:22;0.75;;;0.15;;
43807;SDS011;29438;50.664;10.098;2023-05-10T04:26:48;0.80;;;0.30;;
43807;SDS011;29438;50.664;10.098;2023-05-10T04:29:13;0.88;;;0.43;;
43807;SDS011;29438;50.664;10.098;2023-05-10T04:31:39;1.05;;;0.40;;
43807;SDS011;29438;50.664;10.098;2023-05-10T04:34:04;1.02;;;0.50;;
43807;SDS011;29438;50.664;10.098;2023-05-10T04:36:30;0.95;;;0.55;;
43807;SDS011;29438;50.664;10.098;2023-05-10T04:38:57;1.05;;;0.47;;
43807;SDS011;29438;50.664;10.098;2023-05-10T04:41:23;1.27;;;0.70;;
43807;SDS011;29438;50.664;10.098;2023-05-10T04:43:49;1.60;;;0.80;;
43807;SDS011;29438;50.664;10.098;2023-05-10T04:46:15;2.42;;;1.20;;
43807;SDS011;29438;50.664;10.098;2023-05-10T04:48:40;2.25;;;1.33;;
43807;SDS011;29438;50.664;10.098;2023-05-10T04:51:06;1.55;;;1.00;;
43807;SDS011;29438;50.664;10.098;2023-05-10T04:53:32;1.52;;;0.80;;
43807;SDS011;29438;50.664;10.098;2023-05-10T04:55:57;1.75;;;1.00;;
43807;SDS011;29438;50.664;10.098;2023-05-10T04:58:23;1.20;;;0.60;;
43807;SDS011;29438;50.664;10.098;2023-05-10T05:00:48;1.95;;;0.70;;
43807;SDS011;29438;50.664;10.098;2023-05-10T05:03:14;1.00;;;0.57;;
43807;SDS011;29438;50.664;10.098;2023-05-10T05:05:40;1.70;;;0.40;;
43807;SDS011;29438;50.664;10.098;2023-05-10T05:08:05;0.85;;;0.40;;
43807;SDS011;29438;50.664;10.098;2023-05-10T05:10:31;0.75;;;0.30;;
43807;SDS011;29438;50.664;10.098;2023-05-10T05:12:56;0.82;;;0.40;;
43807;SDS011;29438;50.664;10.098;2023-05-10T05:15:22;0.82;;;0.38;;
43807;SDS011;29438;50.664;10.098;2023-05-10T05:17:47;0.80;;;0.30;;
43807;SDS011;29438;50.664;10.098;2023-05-10T05:20:13;0.57;;;0.20;;
43807;SDS011;29438;50.664;10.098;2023-05-10T05:22:39;0.60;;;0.10;;
43807;SDS011;29438;50.664;10.098;2023-05-10T05:25:05;0.47;;;0.10;;
43807;SDS011;29438;50.664;10.098;2023-05-10T05:27:31;0.30;;;0.10;;
43807;SDS011;29438;50.664;10.098;2023-05-10T05:29:57;1.10;;;0.17;;
43807;SDS011;29438;50.664;10.098;2023-05-10T05:32:23;5.03;;;0.40;;
43807;SDS011;29438;50.664;10.098;2023-05-10T05:34:49;0.60;;;0.20;;
43807;SDS011;29438;50.664;10.098;2023-05-10T05:37:15;1.40;;;0.30;;
43807;SDS011;29438;50.664;10.098;2023-05-10T05:39:42;0.70;;;0.30;;
43807;SDS011;29438;50.664;10.098;2023-05-10T05:42:09;0.80;;;0.30;;
43807;SDS011;29438;50.664;10.098;2023-05-10T05:44:35;0.93;;;0.30;;
43807;SDS011;29438;50.664;10.098;2023-05-10T05:47:00;0.68;;;0.30;;
43807;SDS011;29438;50.664;10.098;2023-05-10T05:49:26;0.88;;;0.30;;
43807;SDS011;29438;50.664;10.098;2023-05-10T05:51:52;0.50;;;0.10;;
43807;SDS011;29438;50.664;10.098;2023-05-10T05:54:17;0.50;;;0.20;;
43807;SDS011;29438;50.664;10.098;2023-05-10T05:56:43;3.53;;;0.35;;
43807;SDS011;29438;50.664;10.098;2023-05-10T05:59:09;0.93;;;0.40;;
43807;SDS011;29438;50.664;10.098;2023-05-10T06:01:35;2.40;;;0.40;;
43807;SDS011;29438;50.664;10.098;2023-05-10T06:04:00;0.95;;;0.47;;
43807;SDS011;29438;50.664;10.098;2023-05-10T06:06:26;1.13;;;0.40;;
43807;SDS011;29438;50.664;10.098;2023-05-10T06:08:52;1.05;;;0.50;;
43807;SDS011;29438;50.664;10.098;2023-05-10T06:11:18;1.25;;;0.50;;
43807;SDS011;29438;50.664;10.098;2023-05-10T06:13:43;0.80;;;0.40;;
43807;SDS011;29438;50.664;10.098;2023-05-10T06:16:09;0.80;;;0.45;;
43807;SDS011;29438;50.664;10.098;2023-05-10T06:18:35;1.02;;;0.40;;
43807;SDS011;29438;50.664;10.098;2023-05-10T06:21:00;0.82;;;0.32;;
43807;SDS011;29438;50.664;10.098;2023-05-10T06:23:26;0.60;;;0.30;;
43807;SDS011;29438;50.664;10.098;2023-05-10T06:29:17;0.80;;;0.10;;
43807;SDS011;29438;50.664;10.098;2023-05-10T06:31:43;0.95;;;0.20;;
43807;SDS011;29438;50.664;10.098;2023-05-10T06:34:08;0.45;;;0.10;;
43807;SDS011;29438;50.664;10.098;2023-05-10T06:36:34;0.30;;;0.10;;
43807;SDS011;29438;50.664;10.098;2023-05-10T06:39:00;0.30;;;0.10;;
43807;SDS011;29438;50.664;10.098;2023-05-10T06:41:26;0.40;;;0.10;;
43807;SDS011;29438;50.664;10.098;2023-05-10T06:43:51;0.30;;;0.10;;
43807;SDS011;29438;50.664;10.098;2023-05-10T06:46:17;0.40;;;0.10;;
43807;SDS011;29438;50.664;10.098;2023-05-10T06:48:42;0.30;;;0.10;;
43807;SDS011;29438;50.664;10.098;2023-05-10T06:51:08;0.57;;;0.20;;
43807;SDS011;29438;50.664;10.098;2023-05-10T06:53:34;0.68;;;0.20;;
43807;SDS011;29438;50.664;10.098;2023-05-10T06:55:59;0.57;;;0.20;;
43807;SDS011;29438;50.664;10.098;2023-05-10T06:58:25;0.90;;;0.40;;
43807;SDS011;29438;50.664;10.098;2023-05-10T07:00:50;0.70;;;0.20;;
43807;SDS011;29438;50.664;10.098;2023-05-10T07:03:16;0.70;;;0.30;;
43807;SDS011;29438;50.664;10.098;2023-05-10T07:05:41;0.98;;;0.30;;
43807;SDS011;29438;50.664;10.098;2023-05-10T07:08:07;1.10;;;0.50;;
43807;SDS011;29438;50.664;10.098;2023-05-10T07:10:33;1.98;;;0.47;;
43807;SDS011;29438;50.664;10.098;2023-05-10T07:12:58;0.90;;;0.40;;
43807;SDS011;29438;50.664;10.098;2023-05-10T07:15:25;1.10;;;0.32;;
43807;SDS011;29438;50.664;10.098;2023-05-10T07:17:50;0.65;;;0.30;;
43807;SDS011;29438;50.664;10.098;2023-05-10T07:20:16;1.05;;;0.30;;
43807;SDS011;29438;50.664;10.098;2023-05-10T07:22:42;1.30;;;0.20;;
43807;SDS011;29438;50.664;10.098;2023-05-10T07:25:08;0.50;;;0.20;;
43807;SDS011;29438;50.664;10.098;2023-05-10T07:27:34;0.60;;;0.22;;
43807;SDS011;29438;50.664;10.098;2023-05-10T07:29:59;0.77;;;0.20;;
43807;SDS011;29438;50.664;10.098;2023-05-10T07:32:25;1.27;;;0.30;;
43807;SDS011;29438;50.664;10.098;2023-05-10T07:34:51;0.63;;;0.20;;
43807;SDS011;29438;50.664;10.098;2023-05-10T07:37:16;0.70;;;0.30;;
43807;SDS011;29438;50.664;10.098;2023-05-10T07:39:42;0.57;;;0.20;;
43807;SDS011;29438;50.664;10.098;2023-05-10T07:42:07;0.73;;;0.32;;
43807;SDS011;29438;50.664;10.098;2023-05-10T07:44:33;0.60;;;0.20;;
43807;SDS011;29438;50.664;10.098;2023-05-10T07:46:58;0.98;;;0.32;;
43807;SDS011;29438;50.664;10.098;2023-05-10T07:49:24;0.80;;;0.30;;
43807;SDS011;29438;50.664;10.098;2023-05-10T07:51:50;0.80;;;0.40;;
43807;SDS011;29438;50.664;10.098;2023-05-10T07:54:16;0.98;;;0.30;;
43807;SDS011;29438;50.664;10.098;2023-05-10T07:56:42;0.88;;;0.40;;
43807;SDS011;29438;50.664;10.098;2023-05-10T07:59:14;3.13;;;0.80;;
43807;SDS011;29438;50.664;10.098;2023-05-10T08:01:41;4.72;;;1.60;;
43807;SDS011;29438;50.664;10.098;2023-05-10T08:04:06;1.00;;;0.40;;
43807;SDS011;29438;50.664;10.098;2023-05-10T08:06:32;2.97;;;0.73;;
43807;SDS011;29438;50.664;10.098;2023-05-10T08:08:57;2.45;;;0.40;;
43807;SDS011;29438;50.664;10.098;2023-05-10T08:11:23;0.98;;;0.40;;
43807;SDS011;29438;50.664;10.098;2023-05-10T08:13:49;3.15;;;1.08;;
43807;SDS011;29438;50.664;10.098;2023-05-10T08:16:15;1.27;;;0.55;;
43807;SDS011;29438;50.664;10.098;2023-05-10T08:18:42;1.65;;;0.63;;
43807;SDS011;29438;50.664;10.098;2023-05-10T08:21:09;1.30;;;0.60;;
43807;SDS011;29438;50.664;10.098;2023-05-10T08:23:36;1.40;;;0.65;;
43807;SDS011;29438;50.664;10.098;2023-05-10T08:26:02;1.00;;;0.35;;
43807;SDS011;29438;50.664;10.098;2023-05-10T08:28:30;1.80;;;0.52;;
43807;SDS011;29438;50.664;10.098;2023-05-10T08:30:56;2.08;;;0.70;;
43807;SDS011;29438;50.664;10.098;2023-05-10T08:33:21;1.42;;;0.47;;
43807;SDS011;29438;50.664;10.098;2023-05-10T08:35:47;1.98;;;0.63;;
43807;SDS011;29438;50.664;10.098;2023-05-10T08:38:13;1.30;;;0.50;;
43807;SDS011;29438;50.664;10.098;2023-05-10T08:40:40;1.25;;;0.60;;
43807;SDS011;29438;50.664;10.098;2023-05-10T08:43:11;1.67;;;0.75;;
43807;SDS011;29438;50.664;10.098;2023-05-10T08:45:38;1.60;;;0.88;;
43807;SDS011;29438;50.664;10.098;2023-05-10T08:48:06;1.95;;;0.75;;
43807;SDS011;29438;50.664;10.098;2023-05-10T08:50:34;2.47;;;0.65;;
43807;SDS011;29438;50.664;10.098;2023-05-10T08:53:02;1.40;;;0.60;;
43807;SDS011;29438;50.664;10.098;2023-05-10T08:55:30;2.10;;;0.82;;
43807;SDS011;29438;50.664;10.098;2023-05-10T08:57:58;0.98;;;0.40;;
43807;SDS011;29438;50.664;10.098;2023-05-10T09:00:24;1.10;;;0.47;;
43807;SDS011;29438;50.664;10.098;2023-05-10T09:02:51;1.00;;;0.47;;
43807;SDS011;29438;50.664;10.098;2023-05-10T09:05:16;1.65;;;0.63;;
43807;SDS011;29438;50.664;10.098;2023-05-10T09:07:42;1.50;;;0.50;;
43807;SDS011;29438;50.664;10.098;2023-05-10T09:10:08;0.82;;;0.30;;
43807;SDS011;29438;50.664;10.098;2023-05-10T09:12:35;1.50;;;0.60;;
43807;SDS011;29438;50.664;10.098;2023-05-10T09:15:00;1.80;;;0.50;;
43807;SDS011;29438;50.664;10.098;2023-05-10T09:17:26;1.30;;;0.47;;
43807;SDS011;29438;50.664;10.098;2023-05-10T09:19:59;2.15;;;0.40;;
43807;SDS011;29438;50.664;10.098;2023-05-10T09:22:25;1.17;;;0.52;;
43807;SDS011;29438;50.664;10.098;2023-05-10T09:25:04;0.93;;;0.43;;
43807;SDS011;29438;50.664;10.098;2023-05-10T09:27:37;1.20;;;0.52;;
43807;SDS011;29438;50.664;10.098;2023-05-10T09:30:06;1.15;;;0.50;;
43807;SDS011;29438;50.664;10.098;2023-05-10T09:32:39;1.77;;;0.70;;
43807;SDS011;29438;50.664;10.098;2023-05-10T09:35:10;1.10;;;0.40;;
43807;SDS011;29438;50.664;10.098;2023-05-10T09:37:41;1.65;;;0.80;;
43807;SDS011;29438;50.664;10.098;2023-05-10T09:40:11;1.50;;;0.60;;
43807;SDS011;29438;50.664;10.098;2023-05-10T09:42:42;1.48;;;0.70;;
43807;SDS011;29438;50.664;10.098;2023-05-10T09:45:15;1.02;;;0.50;;
43807;SDS011;29438;50.664;10.098;2023-05-10T09:47:40;1.20;;;0.45;;
43807;SDS011;29438;50.664;10.098;2023-05-10T09:50:06;1.30;;;0.40;;
43807;SDS011;29438;50.664;10.098;2023-05-10T09:52:48;0.70;;;0.20;;
43807;SDS011;29438;50.664;10.098;2023-05-10T09:55:20;1.00;;;0.40;;
43807;SDS011;29438;50.664;10.098;2023-05-10T09:57:58;1.00;;;0.50;;
43807;SDS011;29438;50.664;10.098;2023-05-10T10:00:25;1.45;;;0.50;;
43807;SDS011;29438;50.664;10.098;2023-05-10T10:02:56;2.33;;;0.70;;
43807;SDS011;29438;50.664;10.098;2023-05-10T10:05:27;1.30;;;0.60;;
43807;SDS011;29438;50.664;10.098;2023-05-10T10:07:53;1.50;;;0.50;;
43807;SDS011;29438;50.664;10.098;2023-05-10T10:10:21;1.83;;;0.50;;
43807;SDS011;29438;50.664;10.098;2023-05-10T10:12:47;3.03;;;0.65;;
43807;SDS011;29438;50.664;10.098;2023-05-10T10:15:12;1.30;;;0.70;;
43807;SDS011;29438;50.664;10.098;2023-05-10T10:17:38;1.10;;;0.52;;
43807;SDS011;29438;50.664;10.098;2023-05-10T10:20:05;1.63;;;0.90;;
43807;SDS011;29438;50.664;10.098;2023-05-10T10:22:32;2.05;;;0.82;;
43807;SDS011;29438;50.664;10.098;2023-05-10T10:24:58;3.08;;;0.82;;
43807;SDS011;29438;50.664;10.098;2023-05-10T10:29:55;1.58;;;0.70;;
43807;SDS011;29438;50.664;10.098;2023-05-10T10:35:47;1.25;;;0.57;;
43807;SDS011;29438;50.664;10.098;2023-05-10T10:38:13;1.90;;;0.63;;
43807;SDS011;29438;50.664;10.098;2023-05-10T10:40:39;2.85;;;1.05;;
43807;SDS011;29438;50.664;10.098;2023-05-10T10:43:21;3.30;;;1.10;;
43807;SDS011;29438;50.664;10.098;2023-05-10T10:48:47;2.17;;;0.88;;
43807;SDS011;29438;50.664;10.098;2023-05-10T10:51:37;1.55;;;0.80;;
43807;SDS011;29438;50.664;10.098;2023-05-10T10:54:09;2.30;;;1.08;;
43807;SDS011;29438;50.664;10.098;2023-05-10T10:56:35;2.45;;;1.17;;
43807;SDS011;29438;50.664;10.098;2023-05-10T10:59:01;1.58;;;0.80;;
43807;SDS011;29438;50.664;10.098;2023-05-10T11:01:27;2.22;;;0.75;;
43807;SDS011;29438;50.664;10.098;2023-05-10T11:06:33;1.70;;;0.90;;
43807;SDS011;29438;50.664;10.098;2023-05-10T11:09:10;2.03;;;0.70;;
43807;SDS011;29438;50.664;10.098;2023-05-10T11:11:52;1.95;;;0.70;;
43807;SDS011;29438;50.664;10.098;2023-05-10T11:14:20;1.20;;;0.60;;
43807;SDS011;29438;50.664;10.098;2023-05-10T11:16:47;1.23;;;0.60;;
43807;SDS011;29438;50.664;10.098;2023-05-10T11:19:13;1.02;;;0.30;;
43807;SDS011;29438;50.664;10.098;2023-05-10T11:21:47;1.10;;;0.50;;
43807;SDS011;29438;50.664;10.098;2023-05-10T11:26:40;1.55;;;0.60;;
43807;SDS011;29438;50.664;10.098;2023-05-10T11:29:06;1.00;;;0.40;;
43807;SDS011;29438;50.664;10.098;2023-05-10T11:31:32;1.95;;;0.47;;
43807;SDS011;29438;50.664;10.098;2023-05-10T11:33:58;1.60;;;0.55;;
43807;SDS011;29438;50.664;10.098;2023-05-10T11:38:53;3.05;;;0.45;;
43807;SDS011;29438;50.664;10.098;2023-05-10T11:41:19;0.90;;;0.47;;
43807;SDS011;29438;50.664;10.098;2023-05-10T11:43:51;2.92;;;0.50;;
43807;SDS011;29438;50.664;10.098;2023-05-10T11:46:19;0.80;;;0.40;;
43807;SDS011;29438;50.664;10.098;2023-05-10T11:48:46;0.90;;;0.40;;
43807;SDS011;29438;50.664;10.098;2023-05-10T11:51:15;0.80;;;0.40;;
43807;SDS011;29438;50.664;10.098;2023-05-10T11:53:45;1.33;;;0.43;;
43807;SDS011;29438;50.664;10.098;2023-05-10T11:56:11;1.58;;;0.52;;
43807;SDS011;29438;50.664;10.098;2023-05-10T11:58:37;0.90;;;0.30;;
43807;SDS011;29438;50.664;10.098;2023-05-10T12:01:04;1.35;;;0.30;;
43807;SDS011;29438;50.664;10.098;2023-05-10T12:03:31;2.45;;;0.30;;
43807;SDS011;29438;50.664;10.098;2023-05-10T12:05:57;0.47;;;0.10;;
43807;SDS011;29438;50.664;10.098;2023-05-10T12:08:24;3.33;;;0.20;;
43807;SDS011;29438;50.664;10.098;2023-05-10T12:10:52;0.60;;;0.20;;
43807;SDS011;29438;50.664;10.098;2023-05-10T12:13:19;0.50;;;0.15;;
43807;SDS011;29438;50.664;10.098;2023-05-10T12:15:45;0.35;;;0.10;;
43807;SDS011;29438;50.664;10.098;2023-05-10T12:18:12;0.50;;;0.20;;
43807;SDS011;29438;50.664;10.098;2023-05-10T12:20:38;1.00;;;0.22;;
43807;SDS011;29438;50.664;10.098;2023-05-10T12:23:05;0.60;;;0.20;;
43807;SDS011;29438;50.664;10.098;2023-05-10T12:25:31;0.40;;;0.20;;
43807;SDS011;29438;50.664;10.098;2023-05-10T12:27:58;0.80;;;0.22;;
43807;SDS011;29438;50.664;10.098;2023-05-10T12:30:28;0.70;;;0.30;;
43807;SDS011;29438;50.664;10.098;2023-05-10T12:32:59;1.98;;;0.70;;
43807;SDS011;29438;50.664;10.098;2023-05-10T12:40:55;1.17;;;0.50;;
43807;SDS011;29438;50.664;10.098;2023-05-10T12:43:24;0.98;;;0.40;;
43807;SDS011;29438;50.664;10.098;2023-05-10T12:45:49;2.67;;;0.47;;
43807;SDS011;29438;50.664;10.098;2023-05-10T12:48:15;1.35;;;0.50;;
43807;SDS011;29438;50.664;10.098;2023-05-10T12:50:41;1.08;;;0.40;;
43807;SDS011;29438;50.664;10.098;2023-05-10T12:53:06;1.02;;;0.45;;
43807;SDS011;29438;50.664;10.098;2023-05-10T12:55:32;1.50;;;0.43;;
43807;SDS011;29438;50.664;10.098;2023-05-10T12:57:57;1.00;;;0.40;;
43807;SDS011;29438;50.664;10.098;2023-05-10T13:00:23;0.88;;;0.45;;
43807;SDS011;29438;50.664;10.098;2023-05-10T13:02:48;3.00;;;0.45;;
43807;SDS011;29438;50.664;10.098;2023-05-10T13:05:14;1.52;;;0.50;;
43807;SDS011;29438;50.664;10.098;2023-05-10T13:07:39;2.05;;;0.65;;
43807;SDS011;29438;50.664;10.098;2023-05-10T13:10:06;5.82;;;1.05;;
43807;SDS011;29438;50.664;10.098;2023-05-10T13:12:32;2.55;;;0.70;;
43807;SDS011;29438;50.664;10.098;2023-05-10T13:14:57;2.53;;;0.70;;
43807;SDS011;29438;50.664;10.098;2023-05-10T13:17:24;3.05;;;0.80;;
43807;SDS011;29438;50.664;10.098;2023-05-10T13:19:50;2.63;;;0.70;;
43807;SDS011;29438;50.664;10.098;2023-05-10T13:22:16;2.45;;;0.82;;
43807;SDS011;29438;50.664;10.098;2023-05-10T13:24:42;2.65;;;0.70;;
43807;SDS011;29438;50.664;10.098;2023-05-10T13:27:07;1.80;;;0.60;;
43807;SDS011;29438;50.664;10.098;2023-05-10T13:29:33;2.25;;;0.50;;
43807;SDS011;29438;50.664;10.098;2023-05-10T13:31:58;1.10;;;0.50;;
43807;SDS011;29438;50.664;10.098;2023-05-10T13:34:24;1.60;;;0.50;;
43807;SDS011;29438;50.664;10.098;2023-05-10T13:36:50;2.75;;;0.75;;
43807;SDS011;29438;50.664;10.098;2023-05-10T13:39:15;1.85;;;0.70;;
43807;SDS011;29438;50.664;10.098;2023-05-10T13:41:41;1.92;;;0.80;;
43807;SDS011;29438;50.664;10.098;2023-05-10T13:44:07;3.45;;;0.70;;
43807;SDS011;29438;50.664;10.098;2023-05-10T13:46:32;1.65;;;0.73;;
43807;SDS011;29438;50.664;10.098;2023-05-10T13:48:58;2.13;;;0.75;;
43807;SDS011;29438;50.664;10.098;2023-05-10T13:51:23;2.58;;;0.63;;
43807;SDS011;29438;50.664;10.098;2023-05-10T13:53:49;1.55;;;0.60;;
43807;SDS011;29438;50.664;10.098;2023-05-10T13:56:14;1.13;;;0.50;;
43807;SDS011;29438;50.664;10.098;2023-05-10T13:58:40;1.80;;;0.80;;
43807;SDS011;29438;50.664;10.098;2023-05-10T14:01:06;2.40;;;1.00;;
43807;SDS011;29438;50.664;10.098;2023-05-10T14:03:32;4.25;;;2.03;;
43807;SDS011;29438;50.664;10.098;2023-05-10T14:05:57;3.30;;;1.67;;
43807;SDS011;29438;50.664;10.098;2023-05-10T14:08:23;4.97;;;1.90;;
43807;SDS011;29438;50.664;10.098;2023-05-10T14:10:48;2.50;;;1.20;;
43807;SDS011;29438;50.664;10.098;2023-05-10T14:13:15;2.60;;;1.10;;
43807;SDS011;29438;50.664;10.098;2023-05-10T14:15:41;2.70;;;1.50;;
43807;SDS011;29438;50.664;10.098;2023-05-10T14:18:06;3.03;;;1.60;;
43807;SDS011;29438;50.664;10.098;2023-05-10T14:20:32;3.40;;;1.98;;
43807;SDS011;29438;50.664;10.098;2023-05-10T14:22:58;12.85;;;6.57;;
43807;SDS011;29438;50.664;10.098;2023-05-10T14:25:24;9.23;;;3.90;;
43807;SDS011;29438;50.664;10.098;2023-05-10T14:27:50;8.90;;;4.10;;
43807;SDS011;29438;50.664;10.098;2023-05-10T14:30:16;4.07;;;1.95;;
43807;SDS011;29438;50.664;10.098;2023-05-10T14:32:42;9.13;;;4.68;;
43807;SDS011;29438;50.664;10.098;2023-05-10T14:35:07;12.57;;;5.25;;
43807;SDS011;29438;50.664;10.098;2023-05-10T14:37:33;19.60;;;8.65;;
43807;SDS011;29438;50.664;10.098;2023-05-10T14:39:59;4.35;;;1.70;;
43807;SDS011;29438;50.664;10.098;2023-05-10T14:42:25;8.10;;;3.60;;
43807;SDS011;29438;50.664;10.098;2023-05-10T14:44:50;8.18;;;3.92;;
43807;SDS011;29438;50.664;10.098;2023-05-10T14:47:16;6.07;;;2.75;;
43807;SDS011;29438;50.664;10.098;2023-05-10T14:49:41;6.38;;;3.30;;
43807;SDS011;29438;50.664;10.098;2023-05-10T14:52:07;5.43;;;2.33;;
43807;SDS011;29438;50.664;10.098;2023-05-10T14:54:33;2.33;;;1.30;;
43807;SDS011;29438;50.664;10.098;2023-05-10T14:56:58;3.45;;;1.40;;
43807;SDS011;29438;50.664;10.098;2023-05-10T14:59:25;4.78;;;2.22;;
43807;SDS011;29438;50.664;10.098;2023-05-10T15:01:50;1.67;;;1.00;;
43807;SDS011;29438;50.664;10.098;2023-05-10T15:04:16;2.72;;;1.33;;
43807;SDS011;29438;50.664;10.098;2023-05-10T15:06:41;4.63;;;2.30;;
43807;SDS011;29438;50.664;10.098;2023-05-10T15:09:07;8.55;;;4.03;;
43807;SDS011;29438;50.664;10.098;2023-05-10T15:11:33;4.95;;;2.40;;
43807;SDS011;29438;50.664;10.098;2023-05-10T15:13:59;2.20;;;1.00;;